sensor_id;sensor_type;location;lat;lon;timestamp;pressure;altitude;pressure_sealevel;temperature;humidity
14902;BME280;7542;49.078;9.194;2023-05-22T00:00:10;98179.81;;;30.84;33.36
14902;BME280;7542;49.078;9.194;2023-05-22T00:01:14;98180.13;;;30.83;33.09
14902;BME280;7542;49.078;9.194;2023-05-22T00:02:20;98179.63;;;30.81;33.32
14902;BME280;7542;49.078;9.194;2023-05-22T00:03:23;98184.22;;;30.80;33.42
14902;BME280;7542;49.078;9.194;2023-05-22T00:04:25;98173.72;;;30.79;33.25
14902;BME280;7542;49.078;9.194;2023-05-22T00:05:31;98180.72;;;30.80;33.23
14902;BME280;7542;49.078;9.194;2023-05-22T00:06:42;98178.34;;;30.78;33.38
14902;BME280;7542;49.078;9.194;2023-05-22T00:07:44;98173.25;;;30.77;33.07
14902;BME280;7542;49.078;9.194;2023-05-22T00:08:47;98175.94;;;30.77;33.52
14902;BME280;7542;49.078;9.194;2023-05-22T00:09:49;98174.03;;;30.77;33.72
14902;BME280;7542;49.078;9.194;2023-05-22T00:10:52;98183.28;;;30.76;33.51
14902;BME280;7542;49.078;9.194;2023-05-22T00:11:54;98175.94;;;30.77;33.06
14902;BME280;7542;49.078;9.194;2023-05-22T00:12:56;98177.06;;;30.76;33.36
14902;BME280;7542;49.078;9.194;2023-05-22T00:13:59;98180.88;;;30.75;33.60
14902;BME280;7542;49.078;9.194;2023-05-22T00:15:01;98184.38;;;30.75;33.39
14902;BME280;7542;49.078;9.194;2023-05-22T00:16:03;98180.56;;;30.76;33.09
14902;BME280;7542;49.078;9.194;2023-05-22T00:17:05;98182.47;;;30.76;33.57
14902;BME280;7542;49.078;9.194;2023-05-22T00:18:07;98178.66;;;30.77;33.23
14902;BME280;7542;49.078;9.194;2023-05-22T00:19:10;98182.47;;;30.76;33.29
14902;BME280;7542;49.078;9.194;2023-05-22T00:20:14;98172.75;;;30.75;33.16
14902;BME280;7542;49.078;9.194;2023-05-22T00:21:16;98176.25;;;30.75;33.26
14902;BME280;7542;49.078;9.194;2023-05-22T00:22:19;98171.66;;;30.76;33.28
14902;BME280;7542;49.078;9.194;2023-05-22T00:23:21;98172.44;;;30.76;33.09
14902;BME280;7542;49.078;9.194;2023-05-22T00:24:24;98172.75;;;30.75;33.68
14902;BME280;7542;49.078;9.194;2023-05-22T00:25:26;98167.03;;;30.76;33.54
14902;BME280;7542;49.078;9.194;2023-05-22T00:26:28;98167.34;;;30.75;33.29
14902;BME280;7542;49.078;9.194;2023-05-22T00:27:30;98175.47;;;30.75;33.31
14902;BME280;7542;49.078;9.194;2023-05-22T00:28:32;98163.84;;;30.74;33.37
14902;BME280;7542;49.078;9.194;2023-05-22T00:29:34;98170.84;;;30.75;33.17
14902;BME280;7542;49.078;9.194;2023-05-22T00:30:36;98170.06;;;30.75;33.22
14902;BME280;7542;49.078;9.194;2023-05-22T00:31:39;98164.63;;;30.75;33.11
14902;BME280;7542;49.078;9.194;2023-05-22T00:32:41;98164.97;;;30.73;33.30
14902;BME280;7542;49.078;9.194;2023-05-22T00:33:43;98167.66;;;30.73;33.29
14902;BME280;7542;49.078;9.194;2023-05-22T00:34:45;98170.06;;;30.75;33.17
14902;BME280;7542;49.078;9.194;2023-05-22T00:35:47;98174.66;;;30.74;33.12
14902;BME280;7542;49.078;9.194;2023-05-22T00:36:49;98166.88;;;30.73;33.37
14902;BME280;7542;49.078;9.194;2023-05-22T00:37:51;98163.38;;;30.72;33.63
14902;BME280;7542;49.078;9.194;2023-05-22T00:38:53;98175.47;;;30.75;33.15
14902;BME280;7542;49.078;9.194;2023-05-22T00:39:54;98171.16;;;30.74;33.63
14902;BME280;7542;49.078;9.194;2023-05-22T00:41:00;98165.75;;;30.74;33.14
14902;BME280;7542;49.078;9.194;2023-05-22T00:42:03;98161.13;;;30.74;33.46
14902;BME280;7542;49.078;9.194;2023-05-22T00:43:05;98158.75;;;30.73;33.59
14902;BME280;7542;49.078;9.194;2023-05-22T00:44:09;98168.78;;;30.72;33.47
14902;BME280;7542;49.078;9.194;2023-05-22T00:45:13;98163.06;;;30.74;33.84
14902;BME280;7542;49.078;9.194;2023-05-22T00:46:15;98172.28;;;30.73;33.47
14902;BME280;7542;49.078;9.194;2023-05-22T00:47:22;98165.75;;;30.74;33.45
14902;BME280;7542;49.078;9.194;2023-05-22T00:48:24;98169.84;;;30.71;33.44
14902;BME280;7542;49.078;9.194;2023-05-22T00:49:26;98175.00;;;30.73;33.22
14902;BME280;7542;49.078;9.194;2023-05-22T00:50:29;98173.06;;;30.73;33.22
14902;BME280;7542;49.078;9.194;2023-05-22T00:51:31;98165.25;;;30.72;33.56
14902;BME280;7542;49.078;9.194;2023-05-22T00:52:42;98176.91;;;30.72;33.50
14902;BME280;7542;49.078;9.194;2023-05-22T00:53:47;98176.06;;;30.72;32.93
14902;BME280;7542;49.078;9.194;2023-05-22T00:54:52;98175.78;;;30.73;33.45
14902;BME280;7542;49.078;9.194;2023-05-22T00:55:56;98174.19;;;30.72;33.44
14902;BME280;7542;49.078;9.194;2023-05-22T00:57:00;98174.19;;;30.72;33.58
14902;BME280;7542;49.078;9.194;2023-05-22T00:58:05;98172.88;;;30.70;33.32
14902;BME280;7542;49.078;9.194;2023-05-22T00:59:09;98176.06;;;30.72;33.50
14902;BME280;7542;49.078;9.194;2023-05-22T01:00:13;98172.88;;;30.70;33.30
14902;BME280;7542;49.078;9.194;2023-05-22T01:01:15;98178.28;;;30.70;33.38
14902;BME280;7542;49.078;9.194;2023-05-22T01:02:19;98173.69;;;30.70;33.00
14902;BME280;7542;49.078;9.194;2023-05-22T01:03:21;98172.88;;;30.70;33.56
14902;BME280;7542;49.078;9.194;2023-05-22T01:04:28;98175.91;;;30.68;32.94
14902;BME280;7542;49.078;9.194;2023-05-22T01:05:34;98175.59;;;30.70;33.34
14902;BME280;7542;49.078;9.194;2023-05-22T01:06:37;98168.59;;;30.69;33.35
14902;BME280;7542;49.078;9.194;2023-05-22T01:07:39;98180.19;;;30.69;33.43
14902;BME280;7542;49.078;9.194;2023-05-22T01:08:42;98177.81;;;30.68;33.74
14902;BME280;7542;49.078;9.194;2023-05-22T01:09:43;98174.31;;;30.67;33.22
14902;BME280;7542;49.078;9.194;2023-05-22T01:10:58;98176.69;;;30.69;32.97
14902;BME280;7542;49.078;9.194;2023-05-22T01:12:37;98175.00;;;30.73;33.43
14902;BME280;7542;49.078;9.194;2023-05-22T01:15:23;98173.69;;;30.70;33.05
14902;BME280;7542;49.078;9.194;2023-05-22T01:16:49;98174.00;;;30.69;32.90
14902;BME280;7542;49.078;9.194;2023-05-22T01:19:53;98172.88;;;30.70;33.06
14902;BME280;7542;49.078;9.194;2023-05-22T01:21:19;98176.53;;;30.65;33.42
14902;BME280;7542;49.078;9.194;2023-05-22T01:22:55;98171.13;;;30.65;33.10
14902;BME280;7542;49.078;9.194;2023-05-22T01:31:54;98175.16;;;30.54;33.39
14902;BME280;7542;49.078;9.194;2023-05-22T01:32:59;98172.78;;;30.52;33.64
14902;BME280;7542;49.078;9.194;2023-05-22T01:34:06;98172.47;;;30.54;33.38
14902;BME280;7542;49.078;9.194;2023-05-22T01:35:14;98171.97;;;30.52;33.17
14902;BME280;7542;49.078;9.194;2023-05-22T01:36:20;98175.50;;;30.52;33.78
14902;BME280;7542;49.078;9.194;2023-05-22T01:37:26;98166.56;;;30.52;33.29
14902;BME280;7542;49.078;9.194;2023-05-22T01:38:30;98173.56;;;30.53;33.02
14902;BME280;7542;49.078;9.194;2023-05-22T01:39:33;98172.78;;;30.52;33.11
14902;BME280;7542;49.078;9.194;2023-05-22T01:40:37;98179.31;;;30.51;33.49
14902;BME280;7542;49.078;9.194;2023-05-22T01:41:40;98175.00;;;30.50;33.12
14902;BME280;7542;49.078;9.194;2023-05-22T01:42:44;98182.81;;;30.52;33.15
14902;BME280;7542;49.078;9.194;2023-05-22T01:43:46;98175.81;;;30.51;33.42
14902;BME280;7542;49.078;9.194;2023-05-22T01:44:48;98180.59;;;30.54;33.10
14902;BME280;7542;49.078;9.194;2023-05-22T01:45:50;98174.69;;;30.52;33.49
14902;BME280;7542;49.078;9.194;2023-05-22T01:46:52;98174.69;;;30.52;33.00
14902;BME280;7542;49.078;9.194;2023-05-22T01:47:54;98174.69;;;30.52;33.44
14902;BME280;7542;49.078;9.194;2023-05-22T01:48:57;98182.00;;;30.51;33.02
14902;BME280;7542;49.078;9.194;2023-05-22T01:49:59;98177.41;;;30.52;33.41
14902;BME280;7542;49.078;9.194;2023-05-22T01:52:58;98172.94;;;30.56;33.37
14902;BME280;7542;49.078;9.194;2023-05-22T01:54:26;98186.78;;;30.54;32.88
14902;BME280;7542;49.078;9.194;2023-05-22T01:55:45;98178.19;;;30.52;33.17
14902;BME280;7542;49.078;9.194;2023-05-22T02:00:12;98184.19;;;30.49;33.08
14902;BME280;7542;49.078;9.194;2023-05-22T02:01:18;98184.81;;;30.46;33.33
14902;BME280;7542;49.078;9.194;2023-05-22T02:02:23;98185.63;;;30.47;33.16
14902;BME280;7542;49.078;9.194;2023-05-22T02:03:30;98184.81;;;30.46;33.24
14902;BME280;7542;49.078;9.194;2023-05-22T02:04:38;98190.56;;;30.45;33.60
14902;BME280;7542;49.078;9.194;2023-05-22T02:05:47;98177.81;;;30.45;33.15
14902;BME280;7542;49.078;9.194;2023-05-22T02:06:53;98183.22;;;30.45;33.38
14902;BME280;7542;49.078;9.194;2023-05-22T02:07:59;98188.97;;;30.44;33.08
14902;BME280;7542;49.078;9.194;2023-05-22T02:09:02;98189.75;;;30.44;32.94
14902;BME280;7542;49.078;9.194;2023-05-22T02:10:06;98187.53;;;30.46;33.10
14902;BME280;7542;49.078;9.194;2023-05-22T02:11:12;98184.03;;;30.46;33.43
14902;BME280;7542;49.078;9.194;2023-05-22T02:12:15;98187.84;;;30.45;33.22
14902;BME280;7542;49.078;9.194;2023-05-22T02:13:17;98191.34;;;30.45;33.03
14902;BME280;7542;49.078;9.194;2023-05-22T02:14:19;98185.94;;;30.45;33.38
14902;BME280;7542;49.078;9.194;2023-05-22T02:15:23;98185.94;;;30.45;33.16
14902;BME280;7542;49.078;9.194;2023-05-22T02:16:25;98188.66;;;30.45;33.03
14902;BME280;7542;49.078;9.194;2023-05-22T02:17:29;98194.06;;;30.45;33.25
14902;BME280;7542;49.078;9.194;2023-05-22T02:18:31;98190.56;;;30.45;33.11
14902;BME280;7542;49.078;9.194;2023-05-22T02:19:34;98182.44;;;30.45;33.57
14902;BME280;7542;49.078;9.194;2023-05-22T02:20:37;98190.56;;;30.45;33.18
14902;BME280;7542;49.078;9.194;2023-05-22T02:21:39;98180.03;;;30.43;33.52
14902;BME280;7542;49.078;9.194;2023-05-22T02:22:44;98190.06;;;30.43;33.23
14902;BME280;7542;49.078;9.194;2023-05-22T02:23:46;98187.06;;;30.44;33.16
14902;BME280;7542;49.078;9.194;2023-05-22T02:24:48;98190.88;;;30.43;33.00
14902;BME280;7542;49.078;9.194;2023-05-22T02:25:51;98190.56;;;30.45;33.09
14902;BME280;7542;49.078;9.194;2023-05-22T02:26:53;98184.66;;;30.43;33.56
14902;BME280;7542;49.078;9.194;2023-05-22T02:27:55;98184.66;;;30.43;33.47
14902;BME280;7542;49.078;9.194;2023-05-22T02:28:57;98190.88;;;30.43;33.17
14902;BME280;7542;49.078;9.194;2023-05-22T02:29:59;98189.28;;;30.42;33.38
14902;BME280;7542;49.078;9.194;2023-05-22T02:31:01;98183.06;;;30.42;33.03
14902;BME280;7542;49.078;9.194;2023-05-22T02:32:05;98179.25;;;30.43;33.22
14902;BME280;7542;49.078;9.194;2023-05-22T02:33:07;98184.97;;;30.41;33.51
14902;BME280;7542;49.078;9.194;2023-05-22T02:34:10;98183.06;;;30.42;33.34
14902;BME280;7542;49.078;9.194;2023-05-22T02:35:12;98182.75;;;30.43;32.98
14902;BME280;7542;49.078;9.194;2023-05-22T02:36:14;98180.03;;;30.43;33.38
14902;BME280;7542;49.078;9.194;2023-05-22T02:37:16;98183.06;;;30.42;33.02
14902;BME280;7542;49.078;9.194;2023-05-22T02:38:18;98180.66;;;30.40;33.01
14902;BME280;7542;49.078;9.194;2023-05-22T02:39:20;98179.56;;;30.41;33.30
14902;BME280;7542;49.078;9.194;2023-05-22T02:40:23;98182.28;;;30.41;33.40
14902;BME280;7542;49.078;9.194;2023-05-22T02:41:25;98177.66;;;30.42;32.96
14902;BME280;7542;49.078;9.194;2023-05-22T02:42:27;98179.56;;;30.41;33.39
14902;BME280;7542;49.078;9.194;2023-05-22T02:43:28;98184.19;;;30.41;33.14
14902;BME280;7542;49.078;9.194;2023-05-22T02:44:30;98183.38;;;30.40;33.11
14902;BME280;7542;49.078;9.194;2023-05-22T02:45:32;98178.25;;;30.39;33.34
14902;BME280;7542;49.078;9.194;2023-05-22T02:46:34;98182.06;;;30.38;33.04
14902;BME280;7542;49.078;9.194;2023-05-22T02:47:36;98184.47;;;30.39;33.25
14902;BME280;7542;49.078;9.194;2023-05-22T02:48:38;98176.66;;;30.38;33.43
14902;BME280;7542;49.078;9.194;2023-05-22T02:49:40;98177.44;;;30.38;32.89
14902;BME280;7542;49.078;9.194;2023-05-22T02:50:42;98184.47;;;30.39;33.10
14902;BME280;7542;49.078;9.194;2023-05-22T02:51:44;98183.66;;;30.39;33.13
14902;BME280;7542;49.078;9.194;2023-05-22T02:52:48;98189.38;;;30.37;33.13
14902;BME280;7542;49.078;9.194;2023-05-22T02:53:51;98190.19;;;30.38;33.57
14902;BME280;7542;49.078;9.194;2023-05-22T02:54:53;98185.56;;;30.38;33.13
14902;BME280;7542;49.078;9.194;2023-05-22T02:55:55;98188.59;;;30.37;33.06
14902;BME280;7542;49.078;9.194;2023-05-22T02:56:59;98192.88;;;30.38;33.52
14902;BME280;7542;49.078;9.194;2023-05-22T02:58:02;98199.41;;;30.37;33.24
14902;BME280;7542;49.078;9.194;2023-05-22T02:59:04;98194.00;;;30.37;33.17
14902;BME280;7542;49.078;9.194;2023-05-22T03:00:07;98195.91;;;30.36;32.90
14902;BME280;7542;49.078;9.194;2023-05-22T03:01:12;98191.91;;;30.34;33.32
14902;BME280;7542;49.078;9.194;2023-05-22T03:02:14;98203.22;;;30.36;32.81
14902;BME280;7542;49.078;9.194;2023-05-22T03:03:17;98197.81;;;30.36;33.29
14902;BME280;7542;49.078;9.194;2023-05-22T03:04:19;98194.31;;;30.35;32.86
14902;BME280;7542;49.078;9.194;2023-05-22T03:05:21;98191.91;;;30.34;33.25
14902;BME280;7542;49.078;9.194;2023-05-22T03:06:23;98192.72;;;30.34;32.98
14902;BME280;7542;49.078;9.194;2023-05-22T03:07:26;98193.50;;;30.35;32.85
14902;BME280;7542;49.078;9.194;2023-05-22T03:08:30;98198.91;;;30.35;33.32
14902;BME280;7542;49.078;9.194;2023-05-22T03:09:32;98191.13;;;30.33;32.86
14902;BME280;7542;49.078;9.194;2023-05-22T03:10:34;98197.63;;;30.32;33.10
14902;BME280;7542;49.078;9.194;2023-05-22T03:11:36;98194.63;;;30.34;33.42
14902;BME280;7542;49.078;9.194;2023-05-22T03:12:38;98188.72;;;30.32;33.17
14902;BME280;7542;49.078;9.194;2023-05-22T03:13:39;98196.84;;;30.32;33.26
14902;BME280;7542;49.078;9.194;2023-05-22T03:14:41;98198.75;;;30.31;33.00
14902;BME280;7542;49.078;9.194;2023-05-22T03:15:43;98200.34;;;30.32;33.23
14902;BME280;7542;49.078;9.194;2023-05-22T03:16:45;98196.84;;;30.32;32.89
14902;BME280;7542;49.078;9.194;2023-05-22T03:17:47;98198.25;;;30.29;32.82
14902;BME280;7542;49.078;9.194;2023-05-22T03:18:49;98207.19;;;30.29;32.77
14902;BME280;7542;49.078;9.194;2023-05-22T03:19:51;98200.16;;;30.28;32.85
14902;BME280;7542;49.078;9.194;2023-05-22T03:20:54;98210.69;;;30.30;33.15
14902;BME280;7542;49.078;9.194;2023-05-22T03:21:56;98204.47;;;30.29;33.28
14902;BME280;7542;49.078;9.194;2023-05-22T03:22:58;98213.06;;;30.32;33.09
14902;BME280;7542;49.078;9.194;2023-05-22T03:24:00;98218.78;;;30.30;33.06
14902;BME280;7542;49.078;9.194;2023-05-22T03:25:02;98215.88;;;30.26;33.05
14902;BME280;7542;49.078;9.194;2023-05-22T03:26:04;98221.28;;;30.26;33.17
14902;BME280;7542;49.078;9.194;2023-05-22T03:27:06;98218.59;;;30.26;33.14
14902;BME280;7542;49.078;9.194;2023-05-22T03:28:08;98220.19;;;30.27;32.99
14902;BME280;7542;49.078;9.194;2023-05-22T03:29:10;98222.09;;;30.27;33.22
14902;BME280;7542;49.078;9.194;2023-05-22T03:30:13;98220.19;;;30.27;33.12
14902;BME280;7542;49.078;9.194;2023-05-22T03:31:15;98229.41;;;30.26;32.77
14902;BME280;7542;49.078;9.194;2023-05-22T03:32:18;98227.50;;;30.27;32.84
14902;BME280;7542;49.078;9.194;2023-05-22T03:33:20;98228.28;;;30.27;32.77
14902;BME280;7542;49.078;9.194;2023-05-22T03:34:22;98228.59;;;30.26;33.02
14902;BME280;7542;49.078;9.194;2023-05-22T03:35:24;98229.41;;;30.26;33.40
14902;BME280;7542;49.078;9.194;2023-05-22T03:36:27;98219.69;;;30.25;33.46
14902;BME280;7542;49.078;9.194;2023-05-22T03:37:33;98228.91;;;30.24;33.46
14902;BME280;7542;49.078;9.194;2023-05-22T03:38:35;98224.31;;;30.25;33.30
14902;BME280;7542;49.078;9.194;2023-05-22T03:39:37;98221.59;;;30.25;32.85
14902;BME280;7542;49.078;9.194;2023-05-22T03:40:40;98225.91;;;30.26;32.72
14902;BME280;7542;49.078;9.194;2023-05-22T03:41:42;98225.09;;;30.25;33.41
14902;BME280;7542;49.078;9.194;2023-05-22T03:42:44;98220.81;;;30.24;32.64
14902;BME280;7542;49.078;9.194;2023-05-22T03:43:46;98219.22;;;30.23;32.89
14902;BME280;7542;49.078;9.194;2023-05-22T03:44:48;98218.41;;;30.23;32.78
14902;BME280;7542;49.078;9.194;2023-05-22T03:45:50;98223.81;;;30.23;33.28
14902;BME280;7542;49.078;9.194;2023-05-22T03:46:52;98224.94;;;30.22;32.98
14902;BME280;7542;49.078;9.194;2023-05-22T03:47:55;98211.41;;;30.22;33.37
14902;BME280;7542;49.078;9.194;2023-05-22T03:48:57;98217.94;;;30.21;32.75
14902;BME280;7542;49.078;9.194;2023-05-22T03:49:59;98217.63;;;30.22;32.94
14902;BME280;7542;49.078;9.194;2023-05-22T03:51:01;98217.13;;;30.20;33.12
14902;BME280;7542;49.078;9.194;2023-05-22T03:52:03;98216.03;;;30.21;33.21
14902;BME280;7542;49.078;9.194;2023-05-22T03:53:05;98214.44;;;30.20;32.73
14902;BME280;7542;49.078;9.194;2023-05-22T03:54:07;98216.34;;;30.20;32.71
14902;BME280;7542;49.078;9.194;2023-05-22T03:55:09;98211.72;;;30.20;33.20
14902;BME280;7542;49.078;9.194;2023-05-22T03:56:11;98211.72;;;30.20;33.07
14902;BME280;7542;49.078;9.194;2023-05-22T03:57:13;98209.00;;;30.20;32.70
14902;BME280;7542;49.078;9.194;2023-05-22T03:58:16;98202.31;;;30.18;33.04
14902;BME280;7542;49.078;9.194;2023-05-22T03:59:18;98207.72;;;30.18;33.24
14902;BME280;7542;49.078;9.194;2023-05-22T04:00:20;98207.72;;;30.18;33.06
14902;BME280;7542;49.078;9.194;2023-05-22T04:01:22;98212.31;;;30.17;32.81
14902;BME280;7542;49.078;9.194;2023-05-22T04:02:26;98214.22;;;30.17;32.95
14902;BME280;7542;49.078;9.194;2023-05-22T04:03:30;98210.44;;;30.18;33.43
14902;BME280;7542;49.078;9.194;2023-05-22T04:04:33;98213.13;;;30.18;33.07
14902;BME280;7542;49.078;9.194;2023-05-22T04:05:39;98218.03;;;30.16;33.20
14902;BME280;7542;49.078;9.194;2023-05-22T04:06:41;98215.63;;;30.14;32.88
14902;BME280;7542;49.078;9.194;2023-05-22T04:07:46;98219.44;;;30.13;32.81
14902;BME280;7542;49.078;9.194;2023-05-22T04:08:48;98215.31;;;30.16;33.43
14902;BME280;7542;49.078;9.194;2023-05-22T04:09:50;98216.75;;;30.13;33.39
14902;BME280;7542;49.078;9.194;2023-05-22T04:10:52;98218.34;;;30.14;33.09
14902;BME280;7542;49.078;9.194;2023-05-22T04:11:55;98217.84;;;30.12;33.02
14902;BME280;7542;49.078;9.194;2023-05-22T04:12:57;98221.34;;;30.13;32.89
14902;BME280;7542;49.078;9.194;2023-05-22T04:14:02;98217.06;;;30.12;33.37
14902;BME280;7542;49.078;9.194;2023-05-22T04:15:05;98222.47;;;30.12;32.86
14902;BME280;7542;49.078;9.194;2023-05-22T04:16:08;98221.97;;;30.10;33.40
14902;BME280;7542;49.078;9.194;2023-05-22T04:17:10;98221.19;;;30.09;33.39
14902;BME280;7542;49.078;9.194;2023-05-22T04:18:13;98217.38;;;30.10;33.16
14902;BME280;7542;49.078;9.194;2023-05-22T04:19:15;98228.66;;;30.12;33.09
14902;BME280;7542;49.078;9.194;2023-05-22T04:20:17;98225.47;;;30.10;33.00
14902;BME280;7542;49.078;9.194;2023-05-22T04:21:19;98220.88;;;30.11;33.03
14902;BME280;7542;49.078;9.194;2023-05-22T04:22:21;98225.47;;;30.10;33.33
14902;BME280;7542;49.078;9.194;2023-05-22T04:23:23;98224.69;;;30.10;32.97
14902;BME280;7542;49.078;9.194;2023-05-22T04:24:25;98227.38;;;30.10;33.35
14902;BME280;7542;49.078;9.194;2023-05-22T04:25:28;98216.88;;;30.08;33.05
14902;BME280;7542;49.078;9.194;2023-05-22T04:26:30;98225.00;;;30.08;32.91
14902;BME280;7542;49.078;9.194;2023-05-22T04:27:32;98233.09;;;30.08;33.48
14902;BME280;7542;49.078;9.194;2023-05-22T04:28:35;98226.09;;;30.07;32.83
14902;BME280;7542;49.078;9.194;2023-05-22T04:29:37;98232.31;;;30.08;33.37
14902;BME280;7542;49.078;9.194;2023-05-22T04:30:43;98230.41;;;30.08;33.15
14902;BME280;7542;49.078;9.194;2023-05-22T04:31:44;98235.50;;;30.10;33.35
14902;BME280;7542;49.078;9.194;2023-05-22T04:32:47;98224.47;;;30.06;32.88
14902;BME280;7542;49.078;9.194;2023-05-22T04:33:50;98222.84;;;30.05;33.00
14902;BME280;7542;49.078;9.194;2023-05-22T04:34:52;98232.59;;;30.06;33.47
14902;BME280;7542;49.078;9.194;2023-05-22T04:35:54;98240.69;;;30.06;33.03
14902;BME280;7542;49.078;9.194;2023-05-22T04:36:56;98236.38;;;30.05;32.90
14902;BME280;7542;49.078;9.194;2023-05-22T04:37:59;98236.38;;;30.05;32.86
14902;BME280;7542;49.078;9.194;2023-05-22T04:39:04;98240.69;;;30.06;33.34
14902;BME280;7542;49.078;9.194;2023-05-22T04:40:07;98239.06;;;30.05;33.27
14902;BME280;7542;49.078;9.194;2023-05-22T04:41:11;98239.06;;;30.05;33.40
14902;BME280;7542;49.078;9.194;2023-05-22T04:42:14;98240.69;;;30.06;33.49
14902;BME280;7542;49.078;9.194;2023-05-22T04:43:16;98240.19;;;30.04;33.54
14902;BME280;7542;49.078;9.194;2023-05-22T04:44:19;98234.78;;;30.04;33.33
14902;BME280;7542;49.078;9.194;2023-05-22T04:45:23;98244.00;;;30.03;33.34
14902;BME280;7542;49.078;9.194;2023-05-22T04:46:25;98243.69;;;30.05;33.01
14902;BME280;7542;49.078;9.194;2023-05-22T04:47:29;98247.50;;;30.03;33.39
14902;BME280;7542;49.078;9.194;2023-05-22T04:48:32;98251.00;;;30.04;33.38
14902;BME280;7542;49.078;9.194;2023-05-22T04:49:34;98253.19;;;30.02;33.14
14902;BME280;7542;49.078;9.194;2023-05-22T04:50:36;98252.09;;;30.03;33.40
14902;BME280;7542;49.078;9.194;2023-05-22T04:51:39;98252.91;;;30.03;32.90
14902;BME280;7542;49.078;9.194;2023-05-22T04:52:41;98248.59;;;30.02;33.13
14902;BME280;7542;49.078;9.194;2023-05-22T04:53:43;98254.00;;;30.02;33.00
14902;BME280;7542;49.078;9.194;2023-05-22T04:54:46;98247.00;;;30.01;33.27
14902;BME280;7542;49.078;9.194;2023-05-22T04:55:50;98245.88;;;30.02;33.35
14902;BME280;7542;49.078;9.194;2023-05-22T04:56:52;98250.19;;;30.03;32.96
14902;BME280;7542;49.078;9.194;2023-05-22T04:57:54;98252.09;;;30.03;33.54
14902;BME280;7542;49.078;9.194;2023-05-22T04:58:57;98245.88;;;30.02;33.46
14902;BME280;7542;49.078;9.194;2023-05-22T04:59:59;98252.91;;;30.03;32.92
14902;BME280;7542;49.078;9.194;2023-05-22T05:01:02;98247.78;;;30.02;33.23
14902;BME280;7542;49.078;9.194;2023-05-22T05:02:04;98254.81;;;30.03;33.31
14902;BME280;7542;49.078;9.194;2023-05-22T05:03:06;98250.50;;;30.02;32.96
14902;BME280;7542;49.078;9.194;2023-05-22T05:04:09;98251.00;;;30.04;33.25
14902;BME280;7542;49.078;9.194;2023-05-22T05:05:11;98248.91;;;30.01;33.47
14902;BME280;7542;49.078;9.194;2023-05-22T05:06:13;98238.09;;;30.01;33.10
14902;BME280;7542;49.078;9.194;2023-05-22T05:07:15;98247.00;;;30.01;33.25
14902;BME280;7542;49.078;9.194;2023-05-22T05:08:19;98250.50;;;30.02;33.09
14902;BME280;7542;49.078;9.194;2023-05-22T05:09:22;98249.69;;;30.01;33.42
14902;BME280;7542;49.078;9.194;2023-05-22T05:10:24;98251.59;;;30.01;32.96
14902;BME280;7542;49.078;9.194;2023-05-22T05:11:26;98254.31;;;30.01;33.38
14902;BME280;7542;49.078;9.194;2023-05-22T05:12:28;98246.19;;;30.01;33.18
14902;BME280;7542;49.078;9.194;2023-05-22T05:13:30;98252.41;;;30.01;33.36
14902;BME280;7542;49.078;9.194;2023-05-22T05:14:32;98255.09;;;30.01;33.44
14902;BME280;7542;49.078;9.194;2023-05-22T05:15:34;98248.91;;;30.01;33.05
14902;BME280;7542;49.078;9.194;2023-05-22T05:16:36;98257.81;;;30.01;33.36
14902;BME280;7542;49.078;9.194;2023-05-22T05:17:39;98250.81;;;30.00;33.49
14902;BME280;7542;49.078;9.194;2023-05-22T05:18:41;98252.72;;;30.00;33.54
14902;BME280;7542;49.078;9.194;2023-05-22T05:19:44;98251.31;;;30.02;33.60
14902;BME280;7542;49.078;9.194;2023-05-22T05:20:46;98248.59;;;30.02;33.41
14902;BME280;7542;49.078;9.194;2023-05-22T05:21:48;98252.72;;;30.00;33.07
14902;BME280;7542;49.078;9.194;2023-05-22T05:22:50;98255.91;;;30.02;33.37
14902;BME280;7542;49.078;9.194;2023-05-22T05:23:53;98255.09;;;30.01;33.18
14902;BME280;7542;49.078;9.194;2023-05-22T05:24:55;98247.00;;;30.01;33.24
14902;BME280;7542;49.078;9.194;2023-05-22T05:25:58;98247.31;;;30.00;33.38
14902;BME280;7542;49.078;9.194;2023-05-22T05:27:00;98253.19;;;30.02;33.55
14902;BME280;7542;49.078;9.194;2023-05-22T05:28:01;98255.09;;;30.01;32.87
14902;BME280;7542;49.078;9.194;2023-05-22T05:29:04;98253.50;;;30.00;33.32
14902;BME280;7542;49.078;9.194;2023-05-22T05:30:07;98249.22;;;29.99;33.15
14902;BME280;7542;49.078;9.194;2023-05-22T05:31:09;98243.50;;;30.01;33.09
14902;BME280;7542;49.078;9.194;2023-05-22T05:32:11;98248.09;;;30.00;33.42
14902;BME280;7542;49.078;9.194;2023-05-22T05:33:14;98250.81;;;30.00;33.08
14902;BME280;7542;49.078;9.194;2023-05-22T05:34:16;98248.91;;;30.01;33.08
14902;BME280;7542;49.078;9.194;2023-05-22T05:35:18;98251.59;;;30.01;33.45
14902;BME280;7542;49.078;9.194;2023-05-22T05:36:20;98247.63;;;29.98;33.47
14902;BME280;7542;49.078;9.194;2023-05-22T05:37:24;98256.22;;;30.00;33.50
14902;BME280;7542;49.078;9.194;2023-05-22T05:38:26;98252.72;;;30.00;33.10
14902;BME280;7542;49.078;9.194;2023-05-22T05:39:29;98248.09;;;30.00;33.50
14902;BME280;7542;49.078;9.194;2023-05-22T05:40:31;98245.72;;;29.99;32.84
14902;BME280;7542;49.078;9.194;2023-05-22T05:41:33;98246.50;;;29.99;33.16
14902;BME280;7542;49.078;9.194;2023-05-22T05:42:35;98250.00;;;30.00;33.24
14902;BME280;7542;49.078;9.194;2023-05-22T05:43:37;98251.91;;;29.99;33.27
14902;BME280;7542;49.078;9.194;2023-05-22T05:44:39;98247.31;;;30.00;33.51
14902;BME280;7542;49.078;9.194;2023-05-22T05:45:42;98253.50;;;30.00;33.25
14902;BME280;7542;49.078;9.194;2023-05-22T05:46:44;98254.63;;;29.99;33.18
14902;BME280;7542;49.078;9.194;2023-05-22T05:47:46;98253.81;;;29.99;33.02
14902;BME280;7542;49.078;9.194;2023-05-22T05:48:48;98252.72;;;30.00;33.53
14902;BME280;7542;49.078;9.194;2023-05-22T05:49:50;98250.81;;;30.00;33.53
14902;BME280;7542;49.078;9.194;2023-05-22T05:50:52;98251.91;;;29.99;33.20
14902;BME280;7542;49.078;9.194;2023-05-22T05:51:54;98253.03;;;29.98;33.11
14902;BME280;7542;49.078;9.194;2023-05-22T05:52:57;98251.13;;;29.99;33.50
14902;BME280;7542;49.078;9.194;2023-05-22T05:53:59;98261.13;;;29.98;33.25
14902;BME280;7542;49.078;9.194;2023-05-22T05:55:01;98249.22;;;29.99;32.89
14902;BME280;7542;49.078;9.194;2023-05-22T05:56:04;98253.81;;;29.99;33.00